createdAt,value
2018-12-20T09:39:16.788Z,100777.45
2018-12-20T09:44:20.773Z,100793.91
2018-12-20T09:49:28.047Z,100798.71
2018-12-20T09:54:34.998Z,100795.05
2018-12-20T09:59:39.047Z,100798.05
2018-12-20T10:10:07.236Z,100783.55
2018-12-20T10:15:10.651Z,100783.10
2018-12-20T10:20:15.344Z,100778.16
2018-12-20T10:25:18.321Z,100777.70
2018-12-20T10:30:21.361Z,100770.92
2018-12-20T10:35:24.346Z,100764.63
2018-12-20T10:40:27.333Z,100768.89
2018-12-20T10:45:30.361Z,100758.05
2018-12-20T10:50:33.308Z,100756.45
2018-12-20T10:55:36.276Z,100753.55
2018-12-20T11:00:44.942Z,100738.53
2018-12-20T11:05:53.583Z,100738.66
2018-12-20T11:11:02.703Z,100742.05
2018-12-20T11:16:05.800Z,100729.58
2018-12-20T11:21:08.753Z,100727.52
2018-12-20T11:26:11.713Z,100719.80
2018-12-20T11:31:14.691Z,100721.42
2018-12-20T11:36:17.681Z,100722.94
2018-12-20T11:41:20.653Z,100718.31
2018-12-20T11:51:48.444Z,100719.88
2018-12-20T11:56:51.522Z,100713.83
2018-12-20T12:01:54.580Z,100708.56
2018-12-20T12:06:57.549Z,100709.31
2018-12-20T12:12:00.512Z,100706.33
2018-12-20T12:22:30.103Z,100713.02
2018-12-20T12:27:35.245Z,100710.78
2018-12-20T12:32:41.607Z,100711.02
2018-12-20T12:37:47.500Z,100707.36
2018-12-20T12:42:51.758Z,100704.34
2018-12-20T12:48:03.330Z,100705.32
2018-12-20T12:58:28.425Z,100712.34
2018-12-20T13:03:32.835Z,100707.13
2018-12-20T13:08:38.737Z,100707.80
2018-12-20T13:13:42.331Z,100701.64
2018-12-20T13:24:10.841Z,100706.28
2018-12-20T13:29:13.836Z,100696.89
2018-12-20T13:34:16.900Z,100700.55
2018-12-20T13:39:21.565Z,100698.64
2018-12-20T13:44:24.673Z,100696.84
2018-12-20T13:49:27.655Z,100700.38
2018-12-20T13:54:30.708Z,100701.35
2018-12-20T13:59:33.763Z,100705.55
2018-12-20T14:04:36.798Z,100712.59
2018-12-20T14:09:39.786Z,100707.20
2018-12-20T14:14:42.770Z,100705.19
2018-12-20T14:19:45.865Z,100704.50
2018-12-20T14:30:13.572Z,100696.87
2018-12-20T14:40:35.988Z,100702.66
2018-12-20T14:51:07.690Z,100693.02
2018-12-20T14:56:10.768Z,100702.22
2018-12-20T15:01:13.891Z,100709.91
2018-12-20T15:06:16.937Z,100703.97
2018-12-20T15:11:19.964Z,100703.77
2018-12-20T15:16:23.027Z,100702.67
2018-12-20T15:21:26.109Z,100702.67
2018-12-20T15:26:29.121Z,100698.46
2018-12-20T15:31:32.109Z,100704.97
2018-12-20T15:36:35.169Z,100706.94
2018-12-20T15:41:38.417Z,100705.03
2018-12-20T15:46:41.586Z,100702.41
2018-12-20T15:51:51.357Z,100711.62
2018-12-20T15:56:54.383Z,100708.30
2018-12-20T16:01:57.355Z,100713.73
2018-12-20T16:07:00.331Z,100711.35
2018-12-20T16:12:03.291Z,100706.70
2018-12-20T16:17:06.245Z,100720.02
2018-12-20T16:22:09.392Z,100714.16
2018-12-20T16:27:12.490Z,100719.08
2018-12-20T16:32:15.449Z,100722.89
2018-12-20T16:37:18.383Z,100721.81
2018-12-20T16:42:21.335Z,100723.72
2018-12-20T16:47:24.405Z,100730.30
2018-12-20T16:52:27.648Z,100729.43
2018-12-20T16:57:32.786Z,100724.48
2018-12-20T17:02:35.849Z,100724.36
2018-12-20T17:07:38.984Z,100724.42
2018-12-20T17:12:42.167Z,100726.97
2018-12-20T17:17:45.198Z,100728.87
2018-12-20T17:22:48.156Z,100741.36
2018-12-20T17:33:15.568Z,100734.66
2018-12-20T17:38:18.521Z,100736.72
2018-12-20T17:43:22.626Z,100748.27
2018-12-20T17:48:29.387Z,100747.67
2018-12-20T17:53:30.652Z,100740.52
2018-12-20T17:58:33.666Z,100726.42
2018-12-20T18:03:36.638Z,100738.81
2018-12-20T18:08:39.692Z,100741.58
2018-12-20T18:13:42.709Z,100734.80
2018-12-20T18:18:45.700Z,100731.03
2018-12-20T18:23:48.649Z,100731.30
2018-12-20T18:28:51.720Z,100721.23
2018-12-20T18:33:54.748Z,100728.00
2018-12-20T18:38:57.764Z,100727.16
2018-12-20T18:44:00.885Z,100739.14
2018-12-20T18:49:04.001Z,100734.99
2018-12-20T18:59:22.204Z,100737.73
2018-12-20T19:04:25.301Z,100740.48
2018-12-20T19:09:28.262Z,100745.66
2018-12-20T19:14:32.050Z,100746.19
2018-12-20T19:19:35.521Z,100742.19
2018-12-20T19:24:38.526Z,100738.36
2018-12-20T19:29:41.556Z,100741.37
2018-12-20T19:34:44.713Z,100746.73
2018-12-20T19:39:51.289Z,100756.39
2018-12-20T19:44:56.592Z,100755.53
2018-12-20T19:50:04.766Z,100741.16
2018-12-20T19:55:05.193Z,100741.41
2018-12-20T20:00:13.037Z,100737.92
2018-12-20T20:10:38.666Z,100740.64
2018-12-20T20:15:41.725Z,100726.28
2018-12-20T20:20:44.778Z,100726.77
2018-12-20T20:25:47.811Z,100726.91
2018-12-20T20:30:50.830Z,100717.09
2018-12-20T20:35:53.863Z,100716.36
2018-12-20T20:40:57.287Z,100716.30
2018-12-20T20:46:00.564Z,100712.23
2018-12-20T20:51:03.838Z,100705.17
2018-12-20T21:01:29.067Z,100705.84
2018-12-20T21:06:33.050Z,100716.11
2018-12-20T21:17:08.717Z,100701.79
2018-12-20T21:22:11.785Z,100699.91
2018-12-20T21:27:14.768Z,100705.76
2018-12-20T21:32:18.723Z,100705.31
2018-12-20T21:37:21.933Z,100709.25
2018-12-20T21:42:24.896Z,100707.59
2018-12-20T21:47:28.113Z,100709.17
2018-12-20T21:52:31.075Z,100708.54
2018-12-20T21:57:34.257Z,100713.48
2018-12-20T22:02:37.539Z,100713.81
2018-12-20T22:07:40.610Z,100691.20
2018-12-20T22:18:08.439Z,100703.27
2018-12-20T22:23:18.089Z,100701.13
2018-12-20T22:28:21.044Z,100699.59
2018-12-20T22:33:24.007Z,100701.66
2018-12-20T22:38:26.989Z,100700.41
2018-12-20T22:43:29.984Z,100697.92
2018-12-20T22:48:32.941Z,100691.75
2018-12-20T22:53:35.894Z,100691.70
2018-12-20T22:58:38.832Z,100686.69
2018-12-20T23:03:41.805Z,100678.69
2018-12-20T23:08:44.775Z,100681.25
2018-12-20T23:13:47.758Z,100682.83
2018-12-20T23:18:52.397Z,100675.06
2018-12-20T23:23:55.564Z,100664.54
2018-12-20T23:28:58.610Z,100663.28
2018-12-20T23:39:22.039Z,100640.72
2018-12-20T23:49:43.805Z,100637.93
2018-12-20T23:54:47.363Z,100644.52
2018-12-20T23:59:50.804Z,100644.02
